KEWR/EWR METAR and TAF weather

Enter ICAO airport designator
Station Type Date Time Source
KEWR METAR 2022/05/23 13:51 UTC NOAA

KEWR 231351Z 35009KT 10SM FEW035 FEW140 BKN250 21/08 A3020 RMK AO2 SLP227 T02060083


Station Type Date Time Source
KEWR Decoded METAR 2022/05/23 13:51 UTC NOAA

NEWARK INTERNATIONAL AIRPORT, NJ, United States (KEWR) 40-41N 74-10W 7M
May 23, 2022 - 09:51 AM EDT / 2022.05.23 1351 UTC
Wind: from the N (350 degrees) at 10 MPH (9 KT):0
Visibility: 10 mile(s):0
Sky conditions: mostly cloudy
Temperature: 69.1 F (20.6 C)
Dew Point: 46.9 F (8.3 C)
Relative Humidity: 45%
Pressure (altimeter): 30.2 in. Hg (1022 hPa)
ob: KEWR 231351Z 35009KT 10SM FEW035 FEW140 BKN250 21/08 A3020 RMK AO2 SLP227 T02060083
cycle: 14

Station Type Date Time Source
KEWR TAF 2022/05/23 12:27 UTC NOAA

TAF KEWR 231124Z 2312/2418 34014G20KT P6SM SCT025 SCT050 BKN120
FM231400 35010KT P6SM BKN200
FM240000 01006KT P6SM BKN150
FM240500 VRB05KT P6SM BKN100
FM241400 08010KT P6SM BKN100

Example: see airport list